sensor_id;sensor_type;location;lat;lon;timestamp;P1;durP1;ratioP1;P2;durP2;ratioP2
45863;SDS011;31579;52.354;16.974;2022-08-25T00:00:06;20.90;;;15.10;;
45863;SDS011;31579;52.354;16.974;2022-08-25T00:05:06;20.90;;;15.10;;
45863;SDS011;31579;52.354;16.974;2022-08-25T00:10:06;23.00;;;15.20;;
45863;SDS011;31579;52.354;16.974;2022-08-25T00:15:06;23.00;;;15.20;;
45863;SDS011;31579;52.354;16.974;2022-08-25T00:20:06;21.90;;;14.80;;
45863;SDS011;31579;52.354;16.974;2022-08-25T00:25:06;21.90;;;14.80;;
45863;SDS011;31579;52.354;16.974;2022-08-25T00:30:06;20.90;;;13.90;;
45863;SDS011;31579;52.354;16.974;2022-08-25T00:35:06;20.90;;;13.90;;
45863;SDS011;31579;52.354;16.974;2022-08-25T00:40:06;18.10;;;13.40;;
45863;SDS011;31579;52.354;16.974;2022-08-25T00:45:06;18.10;;;13.40;;
45863;SDS011;31579;52.354;16.974;2022-08-25T00:54:39;20.70;;;13.10;;
45863;SDS011;31579;52.354;16.974;2022-08-25T00:59:37;22.40;;;13.90;;
45863;SDS011;31579;52.354;16.974;2022-08-25T01:04:36;22.40;;;13.90;;
45863;SDS011;31579;52.354;16.974;2022-08-25T01:09:36;19.80;;;12.60;;
45863;SDS011;31579;52.354;16.974;2022-08-25T01:15:03;19.80;;;12.60;;
45863;SDS011;31579;52.354;16.974;2022-08-25T01:20:03;20.90;;;14.50;;
45863;SDS011;31579;52.354;16.974;2022-08-25T01:25:04;20.90;;;14.50;;
45863;SDS011;31579;52.354;16.974;2022-08-25T01:30:03;20.90;;;14.50;;
45863;SDS011;31579;52.354;16.974;2022-08-25T01:40:12;20.30;;;14.10;;
45863;SDS011;31579;52.354;16.974;2022-08-25T01:45:12;20.30;;;14.10;;
45863;SDS011;31579;52.354;16.974;2022-08-25T01:50:12;20.00;;;14.00;;
45863;SDS011;31579;52.354;16.974;2022-08-25T01:55:12;20.00;;;14.00;;
45863;SDS011;31579;52.354;16.974;2022-08-25T02:00:12;22.70;;;14.00;;
45863;SDS011;31579;52.354;16.974;2022-08-25T02:05:12;22.70;;;14.00;;
45863;SDS011;31579;52.354;16.974;2022-08-25T02:10:12;22.40;;;15.00;;
45863;SDS011;31579;52.354;16.974;2022-08-25T02:15:12;22.40;;;15.00;;
45863;SDS011;31579;52.354;16.974;2022-08-25T02:20:14;28.20;;;16.40;;
45863;SDS011;31579;52.354;16.974;2022-08-25T02:25:12;28.20;;;16.40;;
45863;SDS011;31579;52.354;16.974;2022-08-25T02:30:12;28.60;;;18.20;;
45863;SDS011;31579;52.354;16.974;2022-08-25T02:35:12;28.60;;;18.20;;
45863;SDS011;31579;52.354;16.974;2022-08-25T02:40:12;26.50;;;18.00;;
45863;SDS011;31579;52.354;16.974;2022-08-25T02:45:12;26.50;;;18.00;;
45863;SDS011;31579;52.354;16.974;2022-08-25T02:50:05;29.20;;;19.90;;
45863;SDS011;31579;52.354;16.974;2022-08-25T02:55:14;29.20;;;19.90;;
45863;SDS011;31579;52.354;16.974;2022-08-25T03:00:13;32.30;;;22.20;;
45863;SDS011;31579;52.354;16.974;2022-08-25T03:05:13;32.30;;;22.20;;
45863;SDS011;31579;52.354;16.974;2022-08-25T03:10:15;35.30;;;23.30;;
45863;SDS011;31579;52.354;16.974;2022-08-25T03:15:13;35.30;;;23.30;;
45863;SDS011;31579;52.354;16.974;2022-08-25T03:20:12;37.50;;;24.90;;
45863;SDS011;31579;52.354;16.974;2022-08-25T03:25:14;37.50;;;24.90;;
45863;SDS011;31579;52.354;16.974;2022-08-25T03:30:12;42.90;;;25.50;;
45863;SDS011;31579;52.354;16.974;2022-08-25T03:35:12;42.90;;;25.50;;
45863;SDS011;31579;52.354;16.974;2022-08-25T03:40:14;34.10;;;23.60;;
45863;SDS011;31579;52.354;16.974;2022-08-25T03:45:13;34.10;;;23.60;;
45863;SDS011;31579;52.354;16.974;2022-08-25T03:50:12;39.80;;;25.90;;
45863;SDS011;31579;52.354;16.974;2022-08-25T03:55:12;39.80;;;25.90;;
45863;SDS011;31579;52.354;16.974;2022-08-25T04:00:12;34.70;;;23.50;;
45863;SDS011;31579;52.354;16.974;2022-08-25T04:01:27;34.70;;;23.50;;
45863;SDS011;31579;52.354;16.974;2022-08-25T04:06:25;37.50;;;25.40;;
45863;SDS011;31579;52.354;16.974;2022-08-25T04:11:26;37.50;;;25.40;;
45863;SDS011;31579;52.354;16.974;2022-08-25T04:16:27;35.70;;;23.50;;
45863;SDS011;31579;52.354;16.974;2022-08-25T04:17:36;35.70;;;23.50;;
45863;SDS011;31579;52.354;16.974;2022-08-25T04:22:32;35.70;;;23.50;;
45863;SDS011;31579;52.354;16.974;2022-08-25T04:27:32;39.40;;;24.90;;
45863;SDS011;31579;52.354;16.974;2022-08-25T04:32:34;39.40;;;24.90;;
45863;SDS011;31579;52.354;16.974;2022-08-25T04:37:32;38.40;;;23.80;;
45863;SDS011;31579;52.354;16.974;2022-08-25T04:42:32;38.40;;;23.80;;
45863;SDS011;31579;52.354;16.974;2022-08-25T04:47:36;38.00;;;25.00;;
45863;SDS011;31579;52.354;16.974;2022-08-25T04:52:32;38.00;;;25.00;;
45863;SDS011;31579;52.354;16.974;2022-08-25T04:57:32;32.90;;;23.20;;
45863;SDS011;31579;52.354;16.974;2022-08-25T05:02:32;32.90;;;23.20;;
45863;SDS011;31579;52.354;16.974;2022-08-25T05:07:32;32.50;;;21.40;;
45863;SDS011;31579;52.354;16.974;2022-08-25T05:12:32;32.50;;;21.40;;
45863;SDS011;31579;52.354;16.974;2022-08-25T05:17:32;28.70;;;18.70;;
45863;SDS011;31579;52.354;16.974;2022-08-25T05:22:32;28.70;;;18.70;;
45863;SDS011;31579;52.354;16.974;2022-08-25T05:28:45;29.20;;;19.20;;
45863;SDS011;31579;52.354;16.974;2022-08-25T05:33:44;29.20;;;19.20;;
45863;SDS011;31579;52.354;16.974;2022-08-25T05:38:45;29.80;;;21.10;;
45863;SDS011;31579;52.354;16.974;2022-08-25T05:43:45;29.80;;;21.10;;
45863;SDS011;31579;52.354;16.974;2022-08-25T05:48:44;26.90;;;19.60;;
45863;SDS011;31579;52.354;16.974;2022-08-25T05:53:48;26.90;;;19.60;;
45863;SDS011;31579;52.354;16.974;2022-08-25T05:58:44;29.30;;;21.30;;
45863;SDS011;31579;52.354;16.974;2022-08-25T06:03:45;29.30;;;21.30;;
45863;SDS011;31579;52.354;16.974;2022-08-25T06:08:44;27.40;;;22.10;;
45863;SDS011;31579;52.354;16.974;2022-08-25T06:13:44;27.40;;;22.10;;
45863;SDS011;31579;52.354;16.974;2022-08-25T06:18:44;27.20;;;21.50;;
45863;SDS011;31579;52.354;16.974;2022-08-25T06:19:27;27.20;;;21.50;;
45863;SDS011;31579;52.354;16.974;2022-08-25T06:24:26;27.20;;;21.50;;
45863;SDS011;31579;52.354;16.974;2022-08-25T06:29:26;25.80;;;20.50;;
45863;SDS011;31579;52.354;16.974;2022-08-25T06:34:26;25.80;;;20.50;;
45863;SDS011;31579;52.354;16.974;2022-08-25T06:36:59;22.40;;;16.50;;
45863;SDS011;31579;52.354;16.974;2022-08-25T06:41:57;22.40;;;16.50;;
45863;SDS011;31579;52.354;16.974;2022-08-25T06:46:57;19.40;;;15.70;;
45863;SDS011;31579;52.354;16.974;2022-08-25T06:51:57;19.40;;;15.70;;
45863;SDS011;31579;52.354;16.974;2022-08-25T06:58:03;22.90;;;15.50;;
45863;SDS011;31579;52.354;16.974;2022-08-25T07:03:02;22.90;;;15.50;;
45863;SDS011;31579;52.354;16.974;2022-08-25T07:08:02;20.70;;;15.60;;
45863;SDS011;31579;52.354;16.974;2022-08-25T07:13:02;20.70;;;15.60;;
45863;SDS011;31579;52.354;16.974;2022-08-25T07:18:02;17.80;;;13.10;;
45863;SDS011;31579;52.354;16.974;2022-08-25T07:28:03;16.40;;;14.00;;
45863;SDS011;31579;52.354;16.974;2022-08-25T07:33:03;16.40;;;14.00;;
45863;SDS011;31579;52.354;16.974;2022-08-25T07:38:04;16.90;;;10.30;;
45863;SDS011;31579;52.354;16.974;2022-08-25T07:43:04;16.90;;;10.30;;
45863;SDS011;31579;52.354;16.974;2022-08-25T07:48:06;18.30;;;11.20;;
45863;SDS011;31579;52.354;16.974;2022-08-25T07:53:06;18.30;;;11.20;;
45863;SDS011;31579;52.354;16.974;2022-08-25T07:58:04;15.90;;;9.70;;
45863;SDS011;31579;52.354;16.974;2022-08-25T08:03:04;15.90;;;9.70;;
45863;SDS011;31579;52.354;16.974;2022-08-25T08:08:03;14.80;;;9.50;;
45863;SDS011;31579;52.354;16.974;2022-08-25T08:13:04;14.80;;;9.50;;
45863;SDS011;31579;52.354;16.974;2022-08-25T08:18:04;15.20;;;9.70;;
45863;SDS011;31579;52.354;16.974;2022-08-25T08:23:03;15.20;;;9.70;;
45863;SDS011;31579;52.354;16.974;2022-08-25T08:28:03;18.70;;;10.00;;
45863;SDS011;31579;52.354;16.974;2022-08-25T08:33:04;18.70;;;10.00;;
45863;SDS011;31579;52.354;16.974;2022-08-25T08:38:04;16.40;;;10.50;;
45863;SDS011;31579;52.354;16.974;2022-08-25T08:43:06;16.40;;;10.50;;
45863;SDS011;31579;52.354;16.974;2022-08-25T08:58:10;14.90;;;10.10;;
45863;SDS011;31579;52.354;16.974;2022-08-25T09:03:05;14.90;;;10.10;;
45863;SDS011;31579;52.354;16.974;2022-08-25T09:08:06;17.30;;;9.30;;
45863;SDS011;31579;52.354;16.974;2022-08-25T09:13:20;17.30;;;9.30;;
45863;SDS011;31579;52.354;16.974;2022-08-25T09:19:09;21.20;;;9.70;;
45863;SDS011;31579;52.354;16.974;2022-08-25T09:30:14;21.00;;;9.80;;
45863;SDS011;31579;52.354;16.974;2022-08-25T09:35:16;21.00;;;9.80;;
45863;SDS011;31579;52.354;16.974;2022-08-25T09:40:11;17.90;;;8.70;;
45863;SDS011;31579;52.354;16.974;2022-08-25T09:45:12;17.90;;;8.70;;
45863;SDS011;31579;52.354;16.974;2022-08-25T09:50:16;16.40;;;8.80;;
45863;SDS011;31579;52.354;16.974;2022-08-25T09:55:23;16.40;;;8.80;;
45863;SDS011;31579;52.354;16.974;2022-08-25T10:15:36;23.20;;;9.30;;
45863;SDS011;31579;52.354;16.974;2022-08-25T10:20:34;23.20;;;9.30;;
45863;SDS011;31579;52.354;16.974;2022-08-25T10:25:34;20.40;;;9.10;;
45863;SDS011;31579;52.354;16.974;2022-08-25T10:53:34;19.20;;;8.90;;
45863;SDS011;31579;52.354;16.974;2022-08-25T11:08:31;20.40;;;9.10;;
45863;SDS011;31579;52.354;16.974;2022-08-25T11:13:38;20.40;;;9.10;;
45863;SDS011;31579;52.354;16.974;2022-08-25T11:18:27;19.50;;;9.00;;
45863;SDS011;31579;52.354;16.974;2022-08-25T11:23:30;19.50;;;9.00;;
45863;SDS011;31579;52.354;16.974;2022-08-25T11:33:28;18.50;;;7.60;;
45863;SDS011;31579;52.354;16.974;2022-08-25T11:48:35;15.60;;;7.00;;
45863;SDS011;31579;52.354;16.974;2022-08-25T11:53:29;15.60;;;7.00;;
45863;SDS011;31579;52.354;16.974;2022-08-25T12:18:40;18.40;;;6.10;;
45863;SDS011;31579;52.354;16.974;2022-08-25T12:23:39;18.40;;;6.10;;
45863;SDS011;31579;52.354;16.974;2022-08-25T12:28:41;23.20;;;6.80;;
45863;SDS011;31579;52.354;16.974;2022-08-25T12:42:06;19.30;;;6.80;;
45863;SDS011;31579;52.354;16.974;2022-08-25T12:52:06;18.80;;;7.00;;
45863;SDS011;31579;52.354;16.974;2022-08-25T12:57:04;17.70;;;7.40;;
45863;SDS011;31579;52.354;16.974;2022-08-25T13:17:02;20.00;;;6.80;;
45863;SDS011;31579;52.354;16.974;2022-08-25T13:22:08;20.00;;;6.80;;
45863;SDS011;31579;52.354;16.974;2022-08-25T13:27:03;22.90;;;6.90;;
45863;SDS011;31579;52.354;16.974;2022-08-25T13:32:04;22.90;;;6.90;;
45863;SDS011;31579;52.354;16.974;2022-08-25T13:37:05;17.90;;;6.20;;
45863;SDS011;31579;52.354;16.974;2022-08-25T13:42:03;17.90;;;6.20;;
45863;SDS011;31579;52.354;16.974;2022-08-25T13:47:04;18.70;;;6.10;;
45863;SDS011;31579;52.354;16.974;2022-08-25T13:52:03;18.70;;;6.10;;
45863;SDS011;31579;52.354;16.974;2022-08-25T13:57:04;18.00;;;6.00;;
45863;SDS011;31579;52.354;16.974;2022-08-25T14:02:03;18.00;;;6.00;;
45863;SDS011;31579;52.354;16.974;2022-08-25T14:07:06;16.80;;;5.70;;
45863;SDS011;31579;52.354;16.974;2022-08-25T14:12:02;16.80;;;5.70;;
45863;SDS011;31579;52.354;16.974;2022-08-25T14:17:07;18.00;;;5.90;;
45863;SDS011;31579;52.354;16.974;2022-08-25T14:22:02;18.00;;;5.90;;
45863;SDS011;31579;52.354;16.974;2022-08-25T14:27:07;21.70;;;6.90;;
45863;SDS011;31579;52.354;16.974;2022-08-25T14:32:02;21.70;;;6.90;;
45863;SDS011;31579;52.354;16.974;2022-08-25T14:42:04;16.80;;;6.30;;
45863;SDS011;31579;52.354;16.974;2022-08-25T14:43:05;16.80;;;6.30;;
45863;SDS011;31579;52.354;16.974;2022-08-25T14:50:24;16.30;;;6.70;;
45863;SDS011;31579;52.354;16.974;2022-08-25T14:55:24;16.30;;;6.70;;
45863;SDS011;31579;52.354;16.974;2022-08-25T15:00:24;22.40;;;7.10;;
45863;SDS011;31579;52.354;16.974;2022-08-25T15:05:24;22.40;;;7.10;;
45863;SDS011;31579;52.354;16.974;2022-08-25T15:10:24;17.20;;;6.10;;
45863;SDS011;31579;52.354;16.974;2022-08-25T15:15:28;17.20;;;6.10;;
45863;SDS011;31579;52.354;16.974;2022-08-25T15:20:24;22.20;;;7.60;;
45863;SDS011;31579;52.354;16.974;2022-08-25T15:25:24;22.20;;;7.60;;
45863;SDS011;31579;52.354;16.974;2022-08-25T15:30:27;21.50;;;7.10;;
45863;SDS011;31579;52.354;16.974;2022-08-25T15:35:24;21.50;;;7.10;;
45863;SDS011;31579;52.354;16.974;2022-08-25T15:40:24;21.70;;;8.10;;
45863;SDS011;31579;52.354;16.974;2022-08-25T15:45:24;21.70;;;8.10;;
45863;SDS011;31579;52.354;16.974;2022-08-25T15:48:30;20.90;;;6.90;;
45863;SDS011;31579;52.354;16.974;2022-08-25T15:53:28;20.90;;;6.90;;
45863;SDS011;31579;52.354;16.974;2022-08-25T15:58:28;25.10;;;6.70;;
45863;SDS011;31579;52.354;16.974;2022-08-25T16:03:28;25.10;;;6.70;;
45863;SDS011;31579;52.354;16.974;2022-08-25T16:08:28;19.40;;;6.60;;
45863;SDS011;31579;52.354;16.974;2022-08-25T16:13:28;19.40;;;6.60;;
45863;SDS011;31579;52.354;16.974;2022-08-25T16:18:32;20.90;;;6.50;;
45863;SDS011;31579;52.354;16.974;2022-08-25T16:23:28;20.90;;;6.50;;
45863;SDS011;31579;52.354;16.974;2022-08-25T16:28:28;19.90;;;7.00;;
45863;SDS011;31579;52.354;16.974;2022-08-25T16:33:28;19.90;;;7.00;;
45863;SDS011;31579;52.354;16.974;2022-08-25T16:38:28;22.60;;;6.30;;
45863;SDS011;31579;52.354;16.974;2022-08-25T16:43:28;22.60;;;6.30;;
45863;SDS011;31579;52.354;16.974;2022-08-25T16:49:05;21.10;;;6.90;;
45863;SDS011;31579;52.354;16.974;2022-08-25T16:54:06;21.10;;;6.90;;
45863;SDS011;31579;52.354;16.974;2022-08-25T16:59:05;20.10;;;6.20;;
45863;SDS011;31579;52.354;16.974;2022-08-25T17:04:05;20.10;;;6.20;;
45863;SDS011;31579;52.354;16.974;2022-08-25T17:09:05;21.20;;;6.10;;
45863;SDS011;31579;52.354;16.974;2022-08-25T17:14:08;21.20;;;6.10;;
45863;SDS011;31579;52.354;16.974;2022-08-25T17:19:06;22.30;;;6.80;;
45863;SDS011;31579;52.354;16.974;2022-08-25T17:24:06;22.30;;;6.80;;
45863;SDS011;31579;52.354;16.974;2022-08-25T17:29:06;18.00;;;7.00;;
45863;SDS011;31579;52.354;16.974;2022-08-25T17:34:07;18.00;;;7.00;;
45863;SDS011;31579;52.354;16.974;2022-08-25T17:39:06;20.90;;;7.50;;
45863;SDS011;31579;52.354;16.974;2022-08-25T17:44:05;20.90;;;7.50;;
45863;SDS011;31579;52.354;16.974;2022-08-25T17:49:05;24.30;;;8.10;;
45863;SDS011;31579;52.354;16.974;2022-08-25T17:54:05;24.30;;;8.10;;
45863;SDS011;31579;52.354;16.974;2022-08-25T17:59:05;19.90;;;7.50;;
45863;SDS011;31579;52.354;16.974;2022-08-25T18:04:05;19.90;;;7.50;;
45863;SDS011;31579;52.354;16.974;2022-08-25T18:09:05;22.10;;;8.30;;
45863;SDS011;31579;52.354;16.974;2022-08-25T18:14:05;22.10;;;8.30;;
45863;SDS011;31579;52.354;16.974;2022-08-25T18:19:05;20.60;;;8.70;;
45863;SDS011;31579;52.354;16.974;2022-08-25T18:20:16;20.60;;;8.70;;
45863;SDS011;31579;52.354;16.974;2022-08-25T18:25:14;20.60;;;8.70;;
45863;SDS011;31579;52.354;16.974;2022-08-25T18:30:14;22.90;;;9.10;;
45863;SDS011;31579;52.354;16.974;2022-08-25T18:35:14;22.90;;;9.10;;
45863;SDS011;31579;52.354;16.974;2022-08-25T18:40:14;23.30;;;10.20;;
45863;SDS011;31579;52.354;16.974;2022-08-25T18:45:14;23.30;;;10.20;;
45863;SDS011;31579;52.354;16.974;2022-08-25T18:50:14;25.20;;;11.30;;
45863;SDS011;31579;52.354;16.974;2022-08-25T18:55:14;25.20;;;11.30;;
45863;SDS011;31579;52.354;16.974;2022-08-25T19:00:15;30.50;;;13.90;;
45863;SDS011;31579;52.354;16.974;2022-08-25T19:05:19;30.50;;;13.90;;
45863;SDS011;31579;52.354;16.974;2022-08-25T19:10:14;24.40;;;13.70;;
45863;SDS011;31579;52.354;16.974;2022-08-25T19:15:14;24.40;;;13.70;;
45863;SDS011;31579;52.354;16.974;2022-08-25T19:20:15;25.10;;;15.90;;
45863;SDS011;31579;52.354;16.974;2022-08-25T19:25:14;25.10;;;15.90;;
45863;SDS011;31579;52.354;16.974;2022-08-25T19:30:15;24.50;;;17.50;;
45863;SDS011;31579;52.354;16.974;2022-08-25T19:35:17;24.50;;;17.50;;
45863;SDS011;31579;52.354;16.974;2022-08-25T19:40:14;22.90;;;18.30;;
45863;SDS011;31579;52.354;16.974;2022-08-25T19:45:14;22.90;;;18.30;;
45863;SDS011;31579;52.354;16.974;2022-08-25T19:50:15;20.10;;;17.50;;
45863;SDS011;31579;52.354;16.974;2022-08-25T19:55:14;20.10;;;17.50;;
45863;SDS011;31579;52.354;16.974;2022-08-25T19:55:23;20.10;;;17.50;;
45863;SDS011;31579;52.354;16.974;2022-08-25T20:00:24;22.00;;;16.90;;
45863;SDS011;31579;52.354;16.974;2022-08-25T20:05:22;22.00;;;16.90;;
45863;SDS011;31579;52.354;16.974;2022-08-25T20:10:23;26.40;;;17.20;;
45863;SDS011;31579;52.354;16.974;2022-08-25T20:15:21;26.40;;;17.20;;
45863;SDS011;31579;52.354;16.974;2022-08-25T20:20:21;23.00;;;13.90;;
45863;SDS011;31579;52.354;16.974;2022-08-25T20:26:02;23.00;;;13.90;;
45863;SDS011;31579;52.354;16.974;2022-08-25T20:31:02;28.60;;;14.70;;
45863;SDS011;31579;52.354;16.974;2022-08-25T20:36:02;28.60;;;14.70;;
45863;SDS011;31579;52.354;16.974;2022-08-25T20:41:02;20.00;;;12.70;;
45863;SDS011;31579;52.354;16.974;2022-08-25T20:46:03;20.00;;;12.70;;
45863;SDS011;31579;52.354;16.974;2022-08-25T20:51:07;23.50;;;12.60;;
45863;SDS011;31579;52.354;16.974;2022-08-25T21:01:05;21.40;;;12.10;;
45863;SDS011;31579;52.354;16.974;2022-08-25T21:06:05;21.40;;;12.10;;
45863;SDS011;31579;52.354;16.974;2022-08-25T21:14:21;22.60;;;11.90;;
45863;SDS011;31579;52.354;16.974;2022-08-25T21:19:22;20.90;;;12.20;;
45863;SDS011;31579;52.354;16.974;2022-08-25T21:24:20;20.90;;;12.20;;
45863;SDS011;31579;52.354;16.974;2022-08-25T21:29:21;24.30;;;12.60;;
45863;SDS011;31579;52.354;16.974;2022-08-25T21:34:20;24.30;;;12.60;;
45863;SDS011;31579;52.354;16.974;2022-08-25T21:39:23;22.80;;;11.90;;
45863;SDS011;31579;52.354;16.974;2022-08-25T21:44:20;22.80;;;11.90;;
45863;SDS011;31579;52.354;16.974;2022-08-25T21:49:21;28.70;;;13.10;;
45863;SDS011;31579;52.354;16.974;2022-08-25T21:54:20;28.70;;;13.10;;
45863;SDS011;31579;52.354;16.974;2022-08-25T21:59:23;23.10;;;12.30;;
45863;SDS011;31579;52.354;16.974;2022-08-25T22:04:20;23.10;;;12.30;;
45863;SDS011;31579;52.354;16.974;2022-08-25T22:09:21;23.20;;;11.60;;
45863;SDS011;31579;52.354;16.974;2022-08-25T22:14:21;23.20;;;11.60;;
45863;SDS011;31579;52.354;16.974;2022-08-25T22:19:21;22.50;;;12.00;;
45863;SDS011;31579;52.354;16.974;2022-08-25T22:24:20;22.50;;;12.00;;
45863;SDS011;31579;52.354;16.974;2022-08-25T22:29:20;25.70;;;11.70;;
45863;SDS011;31579;52.354;16.974;2022-08-25T22:34:20;25.70;;;11.70;;
45863;SDS011;31579;52.354;16.974;2022-08-25T22:39:20;25.60;;;12.00;;
45863;SDS011;31579;52.354;16.974;2022-08-25T22:44:21;25.60;;;12.00;;
45863;SDS011;31579;52.354;16.974;2022-08-25T22:49:20;26.60;;;11.80;;
45863;SDS011;31579;52.354;16.974;2022-08-25T22:54:21;26.60;;;11.80;;
45863;SDS011;31579;52.354;16.974;2022-08-25T23:04:19;28.00;;;12.10;;
45863;SDS011;31579;52.354;16.974;2022-08-25T23:09:19;24.40;;;12.80;;
45863;SDS011;31579;52.354;16.974;2022-08-25T23:14:19;24.40;;;12.80;;
45863;SDS011;31579;52.354;16.974;2022-08-25T23:19:19;33.10;;;14.20;;
45863;SDS011;31579;52.354;16.974;2022-08-25T23:24:19;33.10;;;14.20;;
45863;SDS011;31579;52.354;16.974;2022-08-25T23:29:19;27.90;;;13.20;;
45863;SDS011;31579;52.354;16.974;2022-08-25T23:34:18;27.90;;;13.20;;
45863;SDS011;31579;52.354;16.974;2022-08-25T23:39:18;28.00;;;13.50;;
45863;SDS011;31579;52.354;16.974;2022-08-25T23:44:18;28.00;;;13.50;;
45863;SDS011;31579;52.354;16.974;2022-08-25T23:49:19;29.90;;;14.90;;
45863;SDS011;31579;52.354;16.974;2022-08-25T23:54:18;29.90;;;14.90;;
45863;SDS011;31579;52.354;16.974;2022-08-25T23:55:04;29.90;;;14.90;;
